Tiempo atmosférico en la estación meteorológica de Azuaga, Badajoz (550 m.)



Fecha
DESCASC
Temp. máxima en grados centígrados (hora)
DESCASC
Temp. mínima en grados centígrados (hora)
DESCASC
Temp. media en grados centígrados
DESCASC
Racha de viento máxima en m/sg (hora)
DESCASC
Velocidad máxima media en intervalos de 10 minutos(hora)
DESCASC
Precipitaciones diarias en mm
DESCASC
Precipitaciones de 00:00 a 06:00 en mm
DESCASC
Precipitaciones de 06:00 a 12:00 en mm
DESCASC
Precipitaciones de 12:00 a 18:00 en mm
DESCASC
Precipitaciones de 18:00 a 24:00 en mm
DESCASC
26-03-2020 18 (15:20) 7.1 (08:00) 12.5 13.06 (17:10) 8.06 (14:10) 0 0 0 0 0
25-03-2020 17.7 (15:30) 6.2 (04:30) 12 7.22 (23:40) 5 (23:40) 0 0 0 0 0
24-03-2020 16.7 (16:30) 6.4 (04:40) 11.6 11.39 (11:30) 6.67 (11:30) 0 0 0 0 0
23-03-2020 14.3 (14:10) 6.1 (07:50) 10.2 11.39 (20:40) 6.67 (20:40) 0.4 0.2 0 0 0.2
22-03-2020 13.7 (14:20) 4.9 (07:40) 9.3 8.89 (14:40) 4.17 (14:30) 0.2 0 0 0.2 0
21-03-2020 12.7 (13:10) 6 (00:00) 9.3 9.72 (03:40) 6.39 (03:40) 27 18.6 0 5.6 2.8
20-03-2020 16.8 (17:20) 9.6 (00:00) 13.2 9.17 (11:40) 5.56 (23:20) 0 0 0 0 0
19-03-2020 18.2 (13:30) 6.3 (00:00) 12.3 5.56 (12:30) 3.33 (11:10) 0 0 0 0 0
18-03-2020 20.9 (16:30) 8.8 (00:00) 14.8 10 (06:00) 5.83 (06:00) 0 0 0 0 0
17-03-2020 15.6 (15:50) 3.3 (00:00) 9.5 10.28 (15:50) 6.11 (15:50) 1.6 1.2 0 0 0.4
16-03-2020 9.4 (13:00) 0.4 (00:00) 4.9 15.56 (16:40) 11.11 (03:10) 0.8 0 0 0 0.8
15-03-2020 21.8 (15:20) 9.3 (00:00) 15.5 12.5 (23:59) 8.61 (23:59) 0.2 0 0 0 0.2
14-03-2020 23 (15:00) 8.2 (00:00) 15.6 5 (19:20) 3.33 (19:00) 0 0 0 0 0
13-03-2020 22.2 (14:20) 8.9 (07:50) 15.6 8.89 (15:10) 5.56 (15:30) 0 0 0 0 0
12-03-2020 24.6 (15:50) 12.3 (00:00) 18.5 10 (15:20) 6.39 (15:20) 0 0 0 0 0
11-03-2020 26.6 (15:10) 9.1 (00:00) 17.9 6.11 (14:00) 3.89 (15:30) 0 0 0 0 0
10-03-2020 24.6 (18:40) 5.9 (00:00) 15.3 6.11 (15:40) 3.06 (12:40) 0 0 0 0 0
09-03-2020 18.3 (16:20) 5.7 (00:00) 12 7.78 (16:40) 5.56 (04:20) 0 0 0 0 0
08-03-2020 19.1 (15:20) 2.7 (00:00) 10.9 9.44 (17:10) 5.83 (21:50) 0 0 0 0 0
07-03-2020 17 (16:10) 1.8 (00:00) 9.4 7.78 (11:30) 4.72 (11:30) 0 0 0 0 0
06-03-2020 13.7 (16:40) 4.4 (00:00) 9 14.44 (15:50) 10 (16:30) 0 0 0 0 0
05-03-2020 15 (15:40) 6.6 (00:00) 10.8 15 (17:00) 10 (17:10) 0 0 0 0 0
04-03-2020 16.6 (16:30) 8.1 (00:00) 12.4 9.44 (15:20) 6.67 (16:40) 0 0 0 0 0
03-03-2020 14.9 (14:50) 4 (00:00) 9.4 15 (12:10) 11.11 (12:10) 0 0 0 0 0
02-03-2020 14.6 (13:50) 5.2 (00:00) 9.9 17.5 (11:30) 11.39 (16:30) 3.8 3.4 0.4 0 0
01-03-2020 16.1 (15:40) 7.6 (00:00) 11.9 12.78 (23:50) 7.22 (14:40) 0 0 0 0 0
29-02-2020 14.4 (12:40) 4.4 (00:00) 9.4 9.44 (15:10) 6.94 (22:50) 1.2 0 0 0.2 1
28-02-2020 20.4 (16:20) 6 (00:00) 13.2 7.22 (17:00) 4.44 (17:00) 0 0 0 0 0

Gráficas

Temp. máximas Temp. mínimas Temp. medias Precipitaciones Rachas de viento máximas Velocidades máximas media en intervalos de 10 minutos

Datos horarios

Fecha y hora oficial Temperatura (ºC) Velocidad del viento (km/h) Dirección del viento Racha (km/h) Dirección de racha Precipitación (mm) Presión (hPa) Tendencia (hPa) Humedad (%)
2020-03-28 23:00:00 9.2 5 Noroeste 7 Noroeste 0 -- -- 68
2020-03-28 22:00:00 9.2 4 Noroeste 12 Sudoeste 0 -- -- 69
2020-03-28 21:00:00 11.1 5 Sudoeste 8 Sudoeste 0 -- -- 60
2020-03-28 20:00:00 12.5 6 Oeste 7 Sudoeste 0 -- -- 58
2020-03-28 19:00:00 15.3 4 Sudeste 12 Este 0 -- -- 46
2020-03-28 18:00:00 15.8 6 Sur 17 Sudeste 0 -- -- 46
2020-03-28 17:00:00 15 8 Sudeste 20 Este 0 -- -- 48
2020-03-28 16:00:00 15.5 8 Este 17 Este 0 -- -- 48
2020-03-28 15:00:00 15.2 9 Este 19 Este 0 -- -- 48
2020-03-28 14:00:00 14.3 6 Este 19 Este 0 -- -- 52
2020-03-28 13:00:00 15 12 Sudeste 21 Este 0 -- -- 51
2020-03-28 12:00:00 13.2 8 Sudeste 16 Sudeste 0 -- -- 63
2020-03-28 11:00:00 10.8 8 Este 18 Este 0 -- -- 69
2020-03-28 10:00:00 8.1 12 Este 17 Este 0 -- -- 77
2020-03-28 09:00:00 4.7 12 Este 19 Este 0 -- -- 87
2020-03-28 08:00:00 2.5 8 Este 14 Este 0 -- -- 91
2020-03-28 07:00:00 2.1 9 Este 15 Este 0 -- -- 92
2020-03-28 06:00:00 1.6 5 Este 13 Este 0 -- -- 93
2020-03-28 05:00:00 2 5 Este 12 Nordeste 0 -- -- 92
2020-03-28 04:00:00 2 8 Nordeste 16 Nordeste 0 -- -- 91
2020-03-28 03:00:00 2.5 6 Nordeste 13 Nordeste 0 -- -- 90
2020-03-28 02:00:00 3 6 Nordeste 14 Este 0 -- -- 87
2020-03-28 01:00:00 3.6 5 Nordeste 17 Nordeste 0 -- -- 85
2020-03-28 00:00:00 4.5 8 Nordeste 15 Nordeste 0 -- -- 82
2020-03-27 23:00:00 5.4 3 Este 18 Nordeste 0 -- -- 82
2020-03-27 22:00:00 6.8 10 Nordeste 18 Nordeste 0 -- -- 78
2020-03-27 21:00:00 8 7 Nordeste 19 Este 0 -- -- 74
2020-03-27 20:00:00 8.9 11 Nordeste 23 Nordeste 0 -- -- 73
2020-03-27 19:00:00 10 13 Nordeste 23 Este 0 -- -- 69
2020-03-27 18:00:00 10.6 15 Nordeste 28 Nordeste 0 -- -- 71
2020-03-27 17:00:00 11.4 15 Norte 27 Norte 0 -- -- 72
2020-03-27 16:00:00 11.6 13 Norte 21 Norte 0 -- -- 70
2020-03-27 15:00:00 11.9 9 Norte 18 Norte 0 -- -- 71
2020-03-27 14:00:00 11.5 8 Norte 18 Norte 0 -- -- 70
2020-03-27 13:00:00 9.9 7 Norte 14 Noroeste 0 -- -- 79
2020-03-27 12:00:00 8.2 6 Noroeste 13 Oeste 0 -- -- 82
2020-03-27 11:00:00 7 6 Oeste 13 Sudoeste 0 -- -- 90
2020-03-27 10:00:00 5.8 3 Sudoeste 10 Oeste 0 -- -- 97
2020-03-27 09:00:00 5.3 8 Noroeste 14 Oeste 0 -- -- 97
2020-03-27 08:00:00 5.2 6 Noroeste 13 Oeste 0 -- -- 97
2020-03-27 07:00:00 5.1 8 Noroeste 15 Noroeste 0 -- -- 97
2020-03-27 06:00:00 5.2 10 Noroeste 19 Noroeste 0 -- -- 97
2020-03-27 05:00:00 4.7 8 Oeste 18 Oeste 0 -- -- 96
2020-03-27 04:00:00 5 9 Noroeste 19 Noroeste 0 -- -- 94
2020-03-27 03:00:00 5.8 10 Oeste 17 Oeste 0 -- -- 93
2020-03-27 02:00:00 6.7 10 Oeste 19 Oeste 0 -- -- 91
2020-03-27 01:00:00 7.3 13 Oeste 22 Oeste 0 -- -- 89
2020-03-27 00:00:00 7.5 13 Oeste 20 Oeste 0 -- -- 88
2020-03-26 23:00:00 8.5 11 Oeste 28 Oeste 0 -- -- 84
2020-03-26 22:00:00 10.1 20 Oeste 27 Oeste 0 -- -- 77
2020-03-26 21:00:00 10.6 14 Oeste 22 Noroeste 0 -- -- 73
2020-03-26 20:00:00 12.6 14 Oeste 31 Noroeste 0 -- -- 62
2020-03-26 19:00:00 15.4 24 Noroeste 42 Noroeste 0 -- -- 49
2020-03-26 18:00:00 16.9 26 Oeste 47 Oeste 0 -- -- 44
2020-03-26 17:00:00 17.8 25 Noroeste 39 Noroeste 0 -- -- 45
2020-03-26 16:00:00 18 28 Noroeste 42 Noroeste 0 -- -- 42
2020-03-26 15:00:00 17.6 27 Noroeste 44 Noroeste 0 -- -- 45
2020-03-26 14:00:00 17.3 25 Noroeste 42 Noroeste 0 -- -- 42
2020-03-26 13:00:00 16.4 22 Oeste 35 Oeste 0 -- -- 60
2020-03-26 12:00:00 15.1 22 Noroeste 35 Noroeste 0 -- -- 66
2020-03-26 11:00:00 13.2 21 Noroeste 38 Noroeste 0 -- -- 74
2020-03-26 10:00:00 10.7 19 Noroeste 29 Oeste 0 -- -- 86
2020-03-26 09:00:00 8.4 13 Noroeste 20 Noroeste 0 -- -- 97
2020-03-26 08:00:00 7.1 8 Oeste 23 Oeste 0 -- -- 96
2020-03-26 07:00:00 7.4 9 Oeste 22 Oeste 0 -- -- 95
2020-03-26 06:00:00 7.9 13 Oeste 22 Oeste 0 -- -- 96
2020-03-26 05:00:00 8.7 12 Oeste 19 Oeste 0 -- -- 96
2020-03-26 04:00:00 8.3 7 Noroeste 18 Oeste 0 -- -- 94
2020-03-26 03:00:00 10.1 12 Oeste 22 Oeste 0 -- -- 94
2020-03-26 02:00:00 10.4 13 Oeste 29 Oeste 0 -- -- 94
2020-03-26 01:00:00 10.5 20 Oeste 30 Oeste 0 -- -- 94
2020-03-26 00:00:00 10.6 16 Oeste 26 Oeste 0 -- -- 92
2020-03-25 23:00:00 10.1 12 Oeste 16 Oeste 0 -- -- 81
2020-03-25 22:00:00 10.2 8 Oeste 13 Noroeste 0 -- -- 77
2020-03-25 21:00:00 10.9 5 Noroeste 10 Oeste 0 -- -- 71
2020-03-25 20:00:00 13.1 3 Noroeste 11 Noroeste 0 -- -- 63
2020-03-25 19:00:00 15.5 8 Noroeste 19 Noroeste 0 -- -- 55
2020-03-25 18:00:00 16.2 10 Noroeste 21 Noroeste 0 -- -- 52
2020-03-25 17:00:00 17.5 16 Noroeste 26 Noroeste 0 -- -- 47
2020-03-25 16:00:00 17.5 12 Norte 22 Noroeste 0 -- -- 48
2020-03-25 15:00:00 17.1 11 Noroeste 18 Noroeste 0 -- -- 51
2020-03-25 14:00:00 16.7 8 Norte 15 Noroeste 0 -- -- 51
2020-03-25 13:00:00 15.7 5 Noroeste 14 Norte 0 -- -- 56
2020-03-25 12:00:00 14.3 4 Oeste 10 Norte 0 -- -- 63
2020-03-25 11:00:00 12.8 4 Noroeste 11 Noroeste 0 -- -- 67
2020-03-25 10:00:00 10.5 3 Nordeste 5 Este 0 -- -- 80
2020-03-25 09:00:00 8.2 3 Norte 5 Norte 0 -- -- 88
2020-03-25 08:00:00 7.3 0 Calma 6 Nordeste 0 -- -- 91
2020-03-25 07:00:00 6.9 3 Nordeste 10 Nordeste 0 -- -- 89
2020-03-25 06:00:00 6.9 5 Nordeste 8 Nordeste 0 -- -- 89
2020-03-25 05:00:00 6.7 5 Este 10 Este 0 -- -- 91
2020-03-25 04:00:00 6.5 3 Este 13 Nordeste 0 -- -- 89
2020-03-25 03:00:00 7.2 4 Nordeste 11 Nordeste 0 -- -- 88
2020-03-25 02:00:00 7.8 7 Nordeste 13 Nordeste 0 -- -- 87
2020-03-25 01:00:00 8.9 3 Nordeste 13 Nordeste 0 -- -- 84
2020-03-25 00:00:00 9.1 9 Este 17 Nordeste 0 -- -- 83
2020-03-24 23:00:00 9 10 Nordeste 23 Este 0 -- -- 83
2020-03-24 22:00:00 9.6 14 Nordeste 26 Este 0 -- -- 81
2020-03-24 21:00:00 10.8 14 Nordeste 30 Este 0 -- -- 77
2020-03-24 20:00:00 12.7 13 Nordeste 30 Nordeste 0 -- -- 72
2020-03-24 19:00:00 14.6 19 Nordeste 33 Nordeste 0 -- -- 66
2020-03-24 18:00:00 15.6 15 Nordeste 33 Nordeste 0 -- -- 60
2020-03-24 17:00:00 15.7 21 Nordeste 33 Nordeste 0 -- -- 62
2020-03-24 16:00:00 15.6 15 Nordeste 32 Este 0 -- -- 57
2020-03-24 15:00:00 15.5 17 Nordeste 34 Nordeste 0 -- -- 59
2020-03-24 14:00:00 15.8 20 Este 36 Nordeste 0 -- -- 55
2020-03-24 13:00:00 15.3 20 Este 39 Este 0 -- -- 57
2020-03-24 12:00:00 14 20 Nordeste 41 Nordeste 0 -- -- 66
2020-03-24 11:00:00 13 19 Nordeste 39 Nordeste 0 -- -- 69
2020-03-24 10:00:00 11.1 22 Nordeste 38 Nordeste 0 -- -- 80
2020-03-24 09:00:00 9.4 16 Nordeste 30 Nordeste 0 -- -- 88
2020-03-24 08:00:00 7.4 14 Nordeste 24 Norte 0 -- -- 94
2020-03-24 07:00:00 7 6 Nordeste 21 Nordeste 0 -- -- 94
2020-03-24 06:00:00 7.3 9 Nordeste 19 Nordeste 0 -- -- 95
2020-03-24 05:00:00 6.8 8 Nordeste 15 Nordeste 0 -- -- 95
2020-03-24 04:00:00 6.8 4 Nordeste 14 Nordeste 0 -- -- 95
2020-03-24 03:00:00 7 3 Norte 14 Este 0 -- -- 94
2020-03-24 02:00:00 7.8 5 Nordeste 14 Norte 0 -- -- 93
2020-03-24 01:00:00 8.4 6 Nordeste 15 Norte 0 -- -- 92
2020-03-24 00:00:00 7.9 5 Nordeste 9 Nordeste 0 -- -- 93
2020-03-23 23:00:00 8.3 4 Nordeste 12 Sudeste 0 -- -- 91
2020-03-23 22:00:00 8.5 6 Sudeste 28 Sudeste 0 -- -- 89
2020-03-23 21:00:00 8.5 18 Sudeste 41 Sudeste 0.2 -- -- 88
2020-03-23 20:00:00 11.4 4 Este 10 Nordeste 0 -- -- 71
2020-03-23 19:00:00 11.7 6 Nordeste 24 Nordeste 0 -- -- 69
2020-03-23 18:00:00 13.6 17 Nordeste 32 Norte 0 -- -- 56
2020-03-23 17:00:00 13.3 10 Este 20 Este 0 -- -- 53
2020-03-23 16:00:00 13.2 10 Este 27 Este 0 -- -- 59
2020-03-23 15:00:00 12.3 15 Este 36 Este 0 -- -- 58
2020-03-23 14:00:00 13.6 12 Este 34 Este 0 -- -- 55
2020-03-23 13:00:00 13.1 14 Este 27 Este 0 -- -- 63
2020-03-23 12:00:00 11.3 14 Nordeste 27 Nordeste 0 -- -- 74
2020-03-23 11:00:00 9.7 12 Nordeste 23 Nordeste 0 -- -- 83
2020-03-23 10:00:00 9.8 8 Nordeste 15 Este 0 -- -- 84
2020-03-23 09:00:00 8.2 5 Este 10 Nordeste 0 -- -- 92
2020-03-23 08:00:00 6.1 3 Nordeste 12 Nordeste 0 -- -- 96
2020-03-23 07:00:00 6.9 4 Nordeste 8 Nordeste 0 -- -- 94
2020-03-23 06:00:00 7.4 2 Este 9 Sudeste 0 -- -- 93
2020-03-23 05:00:00 7.5 4 Este 10 Este 0.2 -- -- 93
2020-03-23 04:00:00 7.7 6 Este 12 Este 0 -- -- 92
2020-03-23 03:00:00 7.7 2 Nordeste 7 Nordeste 0 -- -- 90
2020-03-23 02:00:00 7.8 4 Nordeste 5 Nordeste 0 -- -- 87
2020-03-23 01:00:00 7.6 0 Calma 8 Norte 0 -- -- 89
2020-03-23 00:00:00 8 4 Noroeste 14 Norte 0 -- -- 89
2020-03-22 23:00:00 7.7 5 Norte 9 Nordeste 0 -- -- 90
2020-03-22 22:00:00 7.7 3 Noroeste 7 Oeste 0 -- -- 90
2020-03-22 21:00:00 8.1 3 Sudoeste 8 Sur 0 -- -- 83
2020-03-22 20:00:00 9 4 Sur 13 Sudeste 0 -- -- 82
2020-03-22 19:00:00 9.3 10 Este 24 Nordeste 0 -- -- 82
2020-03-22 18:00:00 12.2 5 Sudeste 13 Este 0 -- -- 66
2020-03-22 17:00:00 12 4 Noroeste 10 Sur 0 -- -- 66
2020-03-22 16:00:00 11.1 7 Sur 18 Sudeste 0 -- -- 71
2020-03-22 15:00:00 10.2 10 Noroeste 32 Norte 0.2 -- -- 78
2020-03-22 14:00:00 12.9 10 Este 23 Este 0 -- -- 55
2020-03-22 13:00:00 11.5 15 Este 23 Nordeste 0 -- -- 60
2020-03-22 12:00:00 11 11 Sudeste 24 Este 0 -- -- 70
2020-03-22 11:00:00 9.7 10 Sudeste 17 Sudeste 0 -- -- 82
2020-03-22 10:00:00 7.4 8 Este 15 Nordeste 0 -- -- 92
2020-03-22 09:00:00 6.3 8 Nordeste 12 Nordeste 0 -- -- 96
2020-03-22 08:00:00 5.1 5 Este 8 Este 0 -- -- 97
2020-03-22 07:00:00 5.2 3 Este 8 Este 0 -- -- 97
2020-03-22 06:00:00 5.7 4 Nordeste 10 Este 0 -- -- 97
2020-03-22 05:00:00 5.8 6 Este 18 Sudeste 0 -- -- 97
2020-03-22 04:00:00 5.6 13 Sudeste 20 Sudeste 0 -- -- 97
2020-03-22 03:00:00 5.6 12 Sudeste 18 Sudeste 0 -- -- 97
2020-03-22 02:00:00 5.7 9 Sudeste 21 Sudeste 0 -- -- 97
2020-03-22 01:00:00 5.7 13 Sudeste 21 Sudeste 0 -- -- 97
2020-03-22 00:00:00 6 9 Sudeste 15 Sur 0 -- -- 97
2020-03-21 23:00:00 6.2 9 Sudeste 16 Sudeste 0 -- -- 96
2020-03-21 22:00:00 6.3 10 Sudeste 16 Sudeste 0.2 -- -- 96
2020-03-21 21:00:00 6.4 9 Sudeste 19 Sudeste 0 -- -- 94
2020-03-21 20:00:00 6.8 11 Sudeste 23 Sudeste 0.2 -- -- 90
2020-03-21 19:00:00 7.3 11 Sudeste 21 Sudeste 2.4 -- -- 93
2020-03-21 18:00:00 7.7 10 Sudeste 19 Este 2 -- -- 94
2020-03-21 17:00:00 7.6 6 Sudeste 20 Sudeste 1.4 -- -- 91
2020-03-21 16:00:00 7.9 10 Sudeste 28 Sur 2.2 -- -- 90
2020-03-21 15:00:00 9.7 15 Sur 25 Sur 0 -- -- 77
2020-03-21 14:00:00 11.4 16 Sur 27 Sur 0 -- -- 66
2020-03-21 13:00:00 12.5 17 Sur 28 Sur 0 -- -- 59
2020-03-21 12:00:00 10.8 15 Sur 27 Sur 0 -- -- 70
2020-03-21 11:00:00 10.9 13 Sur 23 Sur 0 -- -- 70
2020-03-21 10:00:00 9 12 Sur 22 Sur 0 -- -- 79
2020-03-21 09:00:00 8.1 7 Sur 11 Sur 0 -- -- 89
2020-03-21 08:00:00 6.7 4 Sur 11 Sur 0 -- -- 94
2020-03-21 07:00:00 6.9 10 Sudoeste 17 Sudoeste 0 -- -- 93
2020-03-21 06:00:00 6.9 5 Sudoeste 12 Sur 0.4 -- -- 93
2020-03-21 05:00:00 7.2 6 Sudeste 15 Sur 1.4 -- -- 90
2020-03-21 04:00:00 7.9 11 Sudoeste 35 Sudoeste 5.6 -- -- 91
2020-03-21 03:00:00 9.9 17 Sudoeste 27 Sudoeste 8.6 -- -- 94
2020-03-21 02:00:00 10.3 12 Sudeste 20 Sudeste 0.2 -- -- 95
2020-03-21 01:00:00 10.3 7 Sudeste 22 Sudeste 2.4 -- -- 94
2020-03-21 00:00:00 11.1 11 Sudeste 32 Sur 0 -- -- 88
2020-03-20 23:00:00 12.3 16 Sudeste 28 Sudeste 0 -- -- 75
2020-03-20 22:00:00 12.6 11 Sudeste 21 Sudeste 0 -- -- 73
2020-03-20 21:00:00 13.1 10 Sudeste 21 Sudeste 0 -- -- 71
2020-03-20 20:00:00 13.8 13 Sudeste 19 Sudeste 0 -- -- 69
2020-03-20 19:00:00 14.8 8 Sudeste 23 Sudeste 0 -- -- 66
2020-03-20 18:00:00 15.8 13 Sudeste 25 Sudeste 0 -- -- 64
2020-03-20 17:00:00 16.2 12 Sudeste 25 Sur 0 -- -- 62
2020-03-20 16:00:00 15.6 14 Sudeste 22 Este 0 -- -- 65
2020-03-20 15:00:00 15.9 13 Sudeste 25 Este 0 -- -- 62
2020-03-20 14:00:00 16.1 11 Sudeste 23 Sudeste 0 -- -- 63
2020-03-20 13:00:00 14.9 12 Sudeste 27 Sudeste 0 -- -- 64
2020-03-20 12:00:00 14.3 15 Sudeste 33 Sudeste 0 -- -- 68
2020-03-20 11:00:00 12.4 14 Sudeste 25 Sudeste 0 -- -- 77
2020-03-20 10:00:00 11.2 11 Sudeste 21 Sudeste 0 -- -- 84
2020-03-20 09:00:00 10.5 10 Sudeste 16 Sudeste 0 -- -- 90
2020-03-20 08:00:00 9.6 5 Sudeste 15 Este 0 -- -- 91
2020-03-20 07:00:00 9.7 8 Este 15 Este 0 -- -- 91
2020-03-20 06:00:00 10.1 7 Este 16 Sudeste 0 -- -- 90
2020-03-20 05:00:00 10.4 11 Sudeste 20 Sudeste 0 -- -- 89
2020-03-20 04:00:00 10.7 13 Sudeste 19 Sudeste 0 -- -- 86
2020-03-20 03:00:00 11.3 12 Sudeste 21 Sudeste 0 -- -- 83
2020-03-20 02:00:00 11.8 12 Sudeste 16 Sudeste 0 -- -- 80
2020-03-20 01:00:00 12 10 Sudeste 15 Sur 0 -- -- 80
2020-03-20 00:00:00 13 7 Sudeste 12 Sudeste 0 -- -- 73
2020-03-19 23:00:00 13.1 5 Sudeste 7 Sudeste 0 -- -- 73
2020-03-19 22:00:00 13.4 4 Sudeste 6 Sudeste 0 -- -- 70
2020-03-19 21:00:00 14.4 4 Este 9 Este 0 -- -- 64
2020-03-19 20:00:00 15.5 2 Este 5 Sudeste 0 -- -- 60
2020-03-19 19:00:00 16.3 3 Sur 9 Sur 0 -- -- 59
2020-03-19 18:00:00 17.2 8 Sur 12 Sur 0 -- -- 56
2020-03-19 17:00:00 17.6 6 Sur 12 Nordeste 0 -- -- 55
2020-03-19 16:00:00 17.5 9 Este 17 Este 0 -- -- 52
2020-03-19 15:00:00 17.2 9 Sudeste 18 Sudeste 0 -- -- 56
2020-03-19 14:00:00 17.9 8 Sudeste 19 Nordeste 0 -- -- 52
2020-03-19 13:00:00 17.7 12 Este 20 Nordeste 0 -- -- 52
2020-03-19 12:00:00 15.1 8 Nordeste 17 Nordeste 0 -- -- 62
2020-03-19 11:00:00 14.7 9 Este 18 Nordeste 0 -- -- 63
2020-03-19 10:00:00 12 8 Este 14 Nordeste 0 -- -- 73
2020-03-19 09:00:00 8.7 7 Este 14 Nordeste 0 -- -- 85
2020-03-19 08:00:00 6.9 7 Este 14 Este 0 -- -- 89
2020-03-19 07:00:00 6.5 6 Nordeste 11 Nordeste 0 -- -- 90
2020-03-19 06:00:00 8.1 5 Este 8 Este 0 -- -- 88
2020-03-19 05:00:00 6.6 2 Nordeste 5 Noroeste 0 -- -- 90
2020-03-19 04:00:00 7 0 Calma 4 Noroeste 0 -- -- 88
2020-03-19 03:00:00 8.7 2 Nordeste 9 Este 0 -- -- 82
2020-03-19 02:00:00 9.9 7 Este 12 Nordeste 0 -- -- 79
2020-03-19 01:00:00 9.7 5 Nordeste 10 Nordeste 0 -- -- 80
2020-03-19 00:00:00 10.7 7 Nordeste 20 Nordeste 0 -- -- 76
2020-03-18 23:00:00 11.7 9 Este 25 Nordeste 0 -- -- 71
2020-03-18 22:00:00 12.1 6 Sudeste 21 Este 0 -- -- 71
2020-03-18 21:00:00 13 10 Nordeste 23 Este 0 -- -- 70
2020-03-18 20:00:00 14.9 11 Nordeste 24 Nordeste 0 -- -- 65
2020-03-18 19:00:00 18 13 Nordeste 26 Nordeste 0 -- -- 53
2020-03-18 18:00:00 20.4 13 Este 26 Este 0 -- -- 40
2020-03-18 17:00:00 20.8 14 Este 29 Este 0 -- -- 39
2020-03-18 16:00:00 20.6 18 Este 34 Este 0 -- -- 40
2020-03-18 15:00:00 20.1 15 Este 32 Este 0 -- -- 44
2020-03-18 14:00:00 18.2 14 Nordeste 26 Nordeste 0 -- -- 54
2020-03-18 13:00:00 16.5 13 Este 27 Este 0 -- -- 61
2020-03-18 12:00:00 14.8 16 Nordeste 28 Nordeste 0 -- -- 65
2020-03-18 11:00:00 13.7 12 Este 23 Este 0 -- -- 70
2020-03-18 10:00:00 12.3 9 Nordeste 19 Nordeste 0 -- -- 75
2020-03-18 09:00:00 9.5 6 Nordeste 16 Nordeste 0 -- -- 86
2020-03-18 08:00:00 8.9 12 Este 26 Este 0 -- -- 86
2020-03-18 07:00:00 9 7 Este 32 Este 0 -- -- 85
2020-03-18 06:00:00 9.5 21 Nordeste 36 Nordeste 0 -- -- 85
2020-03-18 05:00:00 9.6 13 Este 27 Este 0 -- -- 87
2020-03-18 04:00:00 9.9 12 Este 23 Nordeste 0 -- -- 90
2020-03-18 03:00:00 9.9 8 Este 16 Este 0 -- -- 90
2020-03-18 02:00:00 10.3 7 Este 19 Este 0 -- -- 89
2020-03-18 01:00:00 10.6 11 Este 25 Este 0 -- -- 86
2020-03-18 00:00:00 10.9 12 Este 28 Nordeste 0 -- -- 80
2020-03-17 23:00:00 10 12 Nordeste 24 Nordeste 0 -- -- 77
2020-03-17 22:00:00 9.4 10 Nordeste 17 Nordeste 0 -- -- 78
2020-03-17 21:00:00 10.3 9 Nordeste 15 Nordeste 0.2 -- -- 73
2020-03-17 20:00:00 12.8 12 Este 28 Este 0.2 -- -- 59
2020-03-17 19:00:00 13.3 6 Este 11 Este 0 -- -- 48
2020-03-17 18:00:00 14 7 Este 28 Este 0 -- -- 41
2020-03-17 17:00:00 14.9 21 Este 35 Este 0 -- -- 35
2020-03-17 16:00:00 14.9 22 Este 37 Nordeste 0 -- -- 37
2020-03-17 15:00:00 15.1 15 Este 36 Este 0 -- -- 41
2020-03-17 14:00:00 13.5 16 Este 31 Este 0 -- -- 45
2020-03-17 13:00:00 12.3 15 Este 35 Sudeste 0 -- -- 55
2020-03-17 12:00:00 11.4 15 Este 32 Este 0 -- -- 60
2020-03-17 11:00:00 8.9 16 Este 32 Este 0 -- -- 75
2020-03-17 10:00:00 7.3 15 Este 26 Este 0 -- -- 83
2020-03-17 09:00:00 5.5 12 Sudeste 26 Este 0 -- -- 90
2020-03-17 08:00:00 4.7 11 Este 19 Este 0 -- -- 93
2020-03-17 07:00:00 4.5 13 Este 23 Este 0 -- -- 94
2020-03-17 06:00:00 4.3 14 Este 23 Este 0.2 -- -- 94
2020-03-17 05:00:00 4.2 13 Este 20 Este 0 -- -- 95
2020-03-17 04:00:00 3.4 5 Este 14 Este 0 -- -- 95
2020-03-17 03:00:00 3.8 8 Este 13 Este 0.2 -- -- 94
2020-03-17 02:00:00 3.6 8 Este 19 Este 0.4 -- -- 92
2020-03-17 01:00:00 4.1 5 Nordeste 21 Norte 0.4 -- -- 94
2020-03-17 00:00:00 4.4 9 Noroeste 17 Noroeste 0.6 -- -- 94
2020-03-16 23:00:00 4 6 Noroeste 12 Noroeste 0 -- -- 92
2020-03-16 22:00:00 3.9 6 Noroeste 21 Noroeste 0 -- -- 90
2020-03-16 21:00:00 5.1 14 Noroeste 29 Noroeste 0 -- -- 87
2020-03-16 20:00:00 5 18 Noroeste 36 Noroeste 0.2 -- -- 92
2020-03-16 19:00:00 5.4 24 Noroeste 47 Noroeste 0 -- -- 86
2020-03-16 18:00:00 7.3 27 Noroeste 51 Noroeste 0 -- -- 74
2020-03-16 17:00:00 7.1 34 Noroeste 56 Noroeste 0 -- -- 73
2020-03-16 16:00:00 7.9 30 Noroeste 52 Noroeste 0 -- -- 69
2020-03-16 15:00:00 7.9 24 Noroeste 50 Noroeste 0 -- -- 66
2020-03-16 14:00:00 8 32 Noroeste 50 Noroeste 0 -- -- 61
2020-03-16 13:00:00 9.4 28 Noroeste 45 Noroeste 0 -- -- 58
2020-03-16 12:00:00 8.1 27 Noroeste 42 Noroeste 0 -- -- 60
2020-03-16 11:00:00 7.2 24 Noroeste 40 Oeste 0 -- -- 64
2020-03-16 10:00:00 5.6 25 Noroeste 41 Noroeste 0 -- -- 72
2020-03-16 09:00:00 3.6 22 Oeste 34 Oeste 0 -- -- 86
2020-03-16 08:00:00 1.4 15 Oeste 24 Noroeste 0 -- -- 92
2020-03-16 07:00:00 0.4 12 Noroeste 19 Oeste 0 -- -- 92
2020-03-16 06:00:00 1.2 15 Noroeste 38 Noroeste 0 -- -- 88
2020-03-16 05:00:00 2.1 23 Noroeste 36 Noroeste 0 -- -- 86
2020-03-16 04:00:00 2.8 17 Oeste 55 Noroeste 0 -- -- 86
2020-03-16 03:00:00 4.3 39 Noroeste 55 Noroeste 0 -- -- 81
2020-03-16 02:00:00 6.3 30 Noroeste 46 Noroeste 0 -- -- 74
2020-03-16 01:00:00 7.8 30 Noroeste 50 Noroeste 0 -- -- 76
2020-03-16 00:00:00 9.3 31 Noroeste 45 Noroeste 0 -- -- 77
2020-03-15 23:00:00 11.1 30 Noroeste 44 Oeste 0.2 -- -- 71
2020-03-15 22:00:00 13.2 22 Noroeste 36 Noroeste 0 -- -- 73
2020-03-15 21:00:00 13.8 14 Noroeste 29 Oeste 0 -- -- 83
2020-03-15 20:00:00 15.3 13 Oeste 26 Oeste 0 -- -- 77
2020-03-15 19:00:00 15.7 18 Oeste 36 Oeste 0 -- -- 71
2020-03-15 18:00:00 19.2 20 Sudoeste 33 Sudoeste 0 -- -- 52
2020-03-15 17:00:00 20.9 19 Sudoeste 32 Sudoeste 0 -- -- 49
2020-03-15 16:00:00 20.9 18 Sudoeste 31 Sur 0 -- -- 50
2020-03-15 15:00:00 21.7 13 Sur 24 Sudoeste 0 -- -- 48
2020-03-15 14:00:00 20.9 13 Sudoeste 23 Sudoeste 0 -- -- 50
2020-03-15 13:00:00 20.3 12 Sur 19 Sudoeste 0 -- -- 58
2020-03-15 12:00:00 18.9 6 Sur 13 Sudeste 0 -- -- 66
2020-03-15 11:00:00 16.3 8 Sudeste 15 Sudeste 0 -- -- 75
2020-03-15 10:00:00 13.2 8 Sudeste 20 Sudeste 0 -- -- 86
2020-03-15 09:00:00 11.3 6 Este 17 Sudeste 0 -- -- 94
2020-03-15 08:00:00 10.6 10 Sudeste 16 Sur 0 -- -- 95
2020-03-15 07:00:00 10.6 12 Sudeste 18 Sur 0 -- -- 94
2020-03-15 06:00:00 11.2 9 Sudeste 14 Sudeste 0 -- -- 91
2020-03-15 05:00:00 11.4 3 Sudeste 10 Sudeste 0 -- -- 88
2020-03-15 04:00:00 11.9 5 Sudeste 11 Sur 0 -- -- 85
2020-03-15 03:00:00 12.3 5 Este 6 Este 0 -- -- 86
2020-03-15 02:00:00 12 3 Sudoeste 4 Oeste 0 -- -- 84
2020-03-15 01:00:00 12.7 2 Oeste 3 Sudoeste 0 -- -- 81
2020-03-15 00:00:00 11.9 2 Oeste 5 Oeste 0 -- -- 83
2020-03-14 23:00:00 12.4 2 Oeste 6 Oeste 0 -- -- 83
2020-03-14 22:00:00 14.2 2 Oeste 12 Sur 0 -- -- 76
2020-03-14 21:00:00 15.6 9 Sudoeste 13 Sudoeste 0 -- -- 72
2020-03-14 20:00:00 17 5 Sudoeste 18 Sudoeste 0 -- -- 69
2020-03-14 19:00:00 18.5 12 Sudoeste 17 Sudoeste 0 -- -- 63
2020-03-14 18:00:00 20.8 6 Sudoeste 12 Noroeste 0 -- -- 51
2020-03-14 17:00:00 22.8 3 Nordeste 14 Oeste 0 -- -- 42
2020-03-14 16:00:00 21.7 4 Nordeste 14 Norte 0 -- -- 48
2020-03-14 15:00:00 23 5 Sur 14 Sudeste 0 -- -- 47
2020-03-14 14:00:00 21.9 9 Sudeste 15 Sudoeste 0 -- -- 49
2020-03-14 13:00:00 20.3 4 Sudeste 13 Sudeste 0 -- -- 57
2020-03-14 12:00:00 18.7 5 Sur 11 Sur 0 -- -- 68
2020-03-14 11:00:00 15.9 3 Norte 6 Noroeste 0 -- -- 82
2020-03-14 10:00:00 12 4 Norte 8 Norte 0 -- -- 96
2020-03-14 09:00:00 9.5 2 Oeste 4 Este 0 -- -- 97
2020-03-14 08:00:00 9.1 3 Este 8 Sur 0 -- -- 96
2020-03-14 07:00:00 9.7 3 Sur 6 Sudoeste 0 -- -- 96
2020-03-14 06:00:00 8.8 0 Calma 10 Sudoeste 0 -- -- 96
2020-03-14 05:00:00 9.4 9 Sudoeste 11 Sudoeste 0 -- -- 95
2020-03-14 04:00:00 9.2 6 Oeste 12 Oeste 0 -- -- 95
2020-03-14 03:00:00 9.1 8 Oeste 15 Oeste 0 -- -- 93
2020-03-14 02:00:00 8.7 7 Noroeste 10 Noroeste 0 -- -- 93
2020-03-14 01:00:00 9 8 Noroeste 13 Oeste 0 -- -- 90
2020-03-14 00:00:00 10.5 9 Oeste 14 Oeste 0 -- -- 86
2020-03-13 23:00:00 11.1 9 Oeste 15 Oeste 0 -- -- 87
2020-03-13 22:00:00 12.4 11 Oeste 15 Noroeste 0 -- -- 82
2020-03-13 21:00:00 13.5 8 Oeste 13 Noroeste 0 -- -- 76
2020-03-13 20:00:00 15.1 6 Oeste 16 Norte 0 -- -- 69
2020-03-13 19:00:00 18.3 10 Noroeste 22 Noroeste 0 -- -- 60
2020-03-13 18:00:00 20.1 11 Noroeste 28 Noroeste 0 -- -- 51
2020-03-13 17:00:00 20.6 19 Noroeste 30 Noroeste 0 -- -- 47
2020-03-13 16:00:00 21.7 17 Oeste 32 Oeste 0 -- -- 48
2020-03-13 15:00:00 22 18 Oeste 30 Noroeste 0 -- -- 45
2020-03-13 14:00:00 21.6 13 Oeste 25 Oeste 0 -- -- 46
2020-03-13 13:00:00 21.3 9 Sudoeste 18 Sudoeste 0 -- -- 52
2020-03-13 12:00:00 19.6 8 Sur 15 Sur 0 -- -- 55
2020-03-13 11:00:00 18 8 Sudeste 12 Sudeste 0 -- -- 62
2020-03-13 10:00:00 15.6 5 Sudeste 12 Sudeste 0 -- -- 68
2020-03-13 09:00:00 13.4 8 Sudeste 13 Sudeste 0 -- -- 75
2020-03-13 08:00:00 8.9 2 Este 8 Sudeste 0 -- -- 89
2020-03-13 07:00:00 9.3 3 Sudeste 9 Sur 0 -- -- 87
2020-03-13 06:00:00 10.5 5 Sur 8 Sur 0 -- -- 87
2020-03-13 05:00:00 11.3 6 Sur 7 Sur 0 -- -- 83
2020-03-13 04:00:00 12.1 0 Calma -- -- 0 -- -- 79
2020-03-13 03:00:00 12 0 Calma 7 Oeste 0 -- -- 77
2020-03-13 02:00:00 11.8 6 Oeste 12 Oeste 0 -- -- 80
2020-03-13 01:00:00 12.2 9 Oeste 13 Oeste 0 -- -- 78
2020-03-13 00:00:00 13.6 10 Oeste 15 Sudoeste 0 -- -- 72
2020-03-12 23:00:00 13 4 Oeste 11 Sur 0 -- -- 70
2020-03-12 22:00:00 14.5 7 Sur 11 Sudoeste 0 -- -- 68
2020-03-12 21:00:00 15.5 8 Sudoeste 13 Sudoeste 0 -- -- 64
2020-03-12 20:00:00 17.2 7 Sudoeste 14 Sudoeste 0 -- -- 58
2020-03-12 19:00:00 19.3 9 Sudoeste 26 Sudoeste 0 -- -- 51
2020-03-12 18:00:00 22.2 16 Sudoeste 25 Sudoeste 0 -- -- 37
2020-03-12 17:00:00 23.7 18 Sudoeste 30 Sudoeste 0 -- -- 34
2020-03-12 16:00:00 24.3 18 Sudoeste 36 Sudoeste 0 -- -- 33
2020-03-12 15:00:00 24.3 18 Sur 31 Sur 0 -- -- 34
2020-03-12 14:00:00 24.2 14 Sur 28 Sur 0 -- -- 34
2020-03-12 13:00:00 23.6 18 Sur 28 Sur 0 -- -- 37
2020-03-12 12:00:00 20.4 11 Sudeste 25 Sudeste 0 -- -- 44
2020-03-12 11:00:00 17.8 8 Sudeste 15 Sudeste 0 -- -- 48
2020-03-12 10:00:00 16 8 Sur 18 Sur 0 -- -- 54
2020-03-12 09:00:00 15 12 Sur 19 Sudeste 0 -- -- 55
2020-03-12 08:00:00 15.4 10 Sudeste 15 Sudeste 0 -- -- 52
2020-03-12 07:00:00 14.4 5 Sudeste 10 Sudeste 0 -- -- 57
2020-03-12 06:00:00 14.8 7 Sudeste 15 Sudeste 0 -- -- 56
2020-03-12 05:00:00 16.2 8 Sudeste 19 Sudeste 0 -- -- 53
2020-03-12 04:00:00 16.2 9 Sudeste 16 Sur 0 -- -- 52
2020-03-12 03:00:00 17.7 12 Sudeste 19 Sudeste 0 -- -- 47
2020-03-12 02:00:00 17.1 11 Sudeste 17 Sudeste 0 -- -- 49
2020-03-12 01:00:00 17.5 9 Sur 14 Sudeste 0 -- -- 47
2020-03-12 00:00:00 18.1 5 Sudeste 11 Este 0 -- -- 44
2020-03-11 23:00:00 18.5 5 Sudeste 9 Sudeste 0 -- -- 45
2020-03-11 22:00:00 19.3 7 Sudeste 10 Sudeste 0 -- -- 42
2020-03-11 21:00:00 19.8 5 Sudeste 9 Este 0 -- -- 42
2020-03-11 20:00:00 21.1 6 Sudeste 9 Este 0 -- -- 39
2020-03-11 19:00:00 23.1 7 Sudeste 15 Este 0 -- -- 35
2020-03-11 18:00:00 24.8 7 Sudeste 14 Sudeste 0 -- -- 33
2020-03-11 17:00:00 25.4 9 Sudeste 19 Sudeste 0 -- -- 31
2020-03-11 16:00:00 26.1 10 Sudeste 22 Este 0 -- -- 31
2020-03-11 15:00:00 26.2 11 Sudeste 22 Sudeste 0 -- -- 32
2020-03-11 14:00:00 25.8 12 Sudeste 22 Sur 0 -- -- 32
2020-03-11 13:00:00 24.1 10 Sudeste 19 Sur 0 -- -- 37
2020-03-11 12:00:00 23 13 Sur 21 Sur 0 -- -- 40
2020-03-11 11:00:00 20.8 6 Sudeste 14 Sur 0 -- -- 45
2020-03-11 10:00:00 16.9 0 Calma 4 Sudeste 0 -- -- 63
2020-03-11 09:00:00 13.4 3 Este 6 Noroeste 0 -- -- 72
2020-03-11 08:00:00 9.1 2 Noroeste 6 Noroeste 0 -- -- 74
2020-03-11 07:00:00 10.3 3 Oeste 5 Este 0 -- -- 69
2020-03-11 06:00:00 12.3 4 Este 10 Este 0 -- -- 62
2020-03-11 05:00:00 13.2 4 Este 6 Este 0 -- -- 59
2020-03-11 04:00:00 13.1 3 Nordeste 5 Este 0 -- -- 59
2020-03-11 03:00:00 14 3 Este 9 Este 0 -- -- 57
2020-03-11 02:00:00 15.7 6 Este 8 Este 0 -- -- 51
2020-03-11 01:00:00 14.1 3 Nordeste 5 Nordeste 0 -- -- 58
2020-03-11 00:00:00 14.8 0 Calma 6 Nordeste 0 -- -- 56
2020-03-10 23:00:00 15.9 5 Nordeste 9 Nordeste 0 -- -- 53
2020-03-10 22:00:00 16.2 3 Norte 5 Norte 0 -- -- 53
2020-03-10 21:00:00 17.6 3 Noroeste 8 Este 0 -- -- 50
2020-03-10 20:00:00 20.5 3 Sudeste 5 Nordeste 0 -- -- 41
2020-03-10 19:00:00 23.4 3 Nordeste 5 Norte 0 -- -- 35
2020-03-10 18:00:00 24.2 3 Noroeste 9 Nordeste 0 -- -- 35
2020-03-10 17:00:00 23.8 6 Norte 13 Norte 0 -- -- 36
2020-03-10 16:00:00 23.8 4 Nordeste 22 Norte 0 -- -- 35
2020-03-10 15:00:00 23 4 Este 13 Nordeste 0 -- -- 35
2020-03-10 14:00:00 22.1 5 Sudeste 16 Este 0 -- -- 37
2020-03-10 13:00:00 20.8 8 Sudeste 16 Sudeste 0 -- -- 38
2020-03-10 12:00:00 19 8 Este 13 Este 0 -- -- 39
2020-03-10 11:00:00 16.9 7 Sudeste 12 Sudeste 0 -- -- 43
2020-03-10 10:00:00 14.6 6 Sudeste 13 Sudeste 0 -- -- 51
2020-03-10 09:00:00 9.6 0 Calma 12 Este 0 -- -- 67
2020-03-10 08:00:00 8 8 Este 12 Este 0 -- -- 65
2020-03-10 07:00:00 6.3 4 Oeste 8 Oeste 0 -- -- 78
2020-03-10 06:00:00 6.7 5 Noroeste 12 Noroeste 0 -- -- 79
2020-03-10 05:00:00 6.1 7 Noroeste 13 Oeste 0 -- -- 82
2020-03-10 04:00:00 6.8 4 Oeste 9 Noroeste 0 -- -- 75
2020-03-10 03:00:00 8.4 8 Oeste 9 Oeste 0 -- -- 68
2020-03-10 02:00:00 8.4 5 Oeste 13 Noroeste 0 -- -- 67
2020-03-10 01:00:00 8.1 8 Noroeste 14 Noroeste 0 -- -- 66
2020-03-10 00:00:00 8.4 8 Noroeste 13 Noroeste 0 -- -- 64
2020-03-09 23:00:00 9.4 9 Noroeste 13 Noroeste 0 -- -- 61
2020-03-09 22:00:00 10 7 Noroeste 15 Norte 0 -- -- 59
2020-03-09 21:00:00 10.4 8 Noroeste 13 Noroeste 0 -- -- 60
2020-03-09 20:00:00 11.7 8 Noroeste 11 Noroeste 0 -- -- 58
2020-03-09 19:00:00 15.1 7 Noroeste 21 Norte 0 -- -- 51
2020-03-09 18:00:00 17.2 14 Noroeste 26 Noroeste 0 -- -- 45
2020-03-09 17:00:00 18 16 Noroeste 28 Noroeste 0 -- -- 41
2020-03-09 16:00:00 18.2 15 Noroeste 24 Noroeste 0 -- -- 39
2020-03-09 15:00:00 17.7 11 Norte 23 Noroeste 0 -- -- 39
2020-03-09 14:00:00 16.9 14 Noroeste 24 Noroeste 0 -- -- 41
2020-03-09 13:00:00 15.6 14 Norte 26 Norte 0 -- -- 49
2020-03-09 12:00:00 13.6 13 Noroeste 24 Noroeste 0 -- -- 62
2020-03-09 11:00:00 10.9 13 Noroeste 26 Noroeste 0 -- -- 80
2020-03-09 10:00:00 8.3 20 Noroeste 26 Noroeste 0 -- -- 97
2020-03-09 09:00:00 6.7 15 Noroeste 24 Noroeste 0 -- -- 98
2020-03-09 08:00:00 6.6 13 Noroeste 25 Noroeste 0 -- -- 98
2020-03-09 07:00:00 6.8 17 Noroeste 24 Noroeste 0 -- -- 97
2020-03-09 06:00:00 7.4 13 Noroeste 26 Noroeste 0 -- -- 97
2020-03-09 05:00:00 7.7 15 Noroeste 27 Noroeste 0 -- -- 97
2020-03-09 04:00:00 7 15 Noroeste 25 Noroeste 0 -- -- 96
2020-03-09 03:00:00 5.8 15 Noroeste 22 Noroeste 0 -- -- 94
2020-03-09 02:00:00 6.1 14 Noroeste 18 Noroeste 0 -- -- 91
2020-03-09 01:00:00 7.3 9 Oeste 17 Oeste 0 -- -- 84
2020-03-09 00:00:00 8 11 Oeste 17 Noroeste 0 -- -- 81
2020-03-08 23:00:00 9.7 12 Noroeste 24 Noroeste 0 -- -- 74
2020-03-08 22:00:00 10.9 18 Noroeste 29 Noroeste 0 -- -- 67
2020-03-08 21:00:00 11 15 Noroeste 21 Noroeste 0 -- -- 60
2020-03-08 20:00:00 13.2 5 Noroeste 12 Noroeste 0 -- -- 50
2020-03-08 19:00:00 14.3 10 Noroeste 27 Noroeste 0 -- -- 44
2020-03-08 18:00:00 17.1 17 Noroeste 34 Noroeste 0 -- -- 36
2020-03-08 17:00:00 18.5 17 Noroeste 27 Noroeste 0 -- -- 32
2020-03-08 16:00:00 18.4 13 Noroeste 23 Oeste 0 -- -- 35
2020-03-08 15:00:00 18.7 11 Noroeste 31 Noroeste 0 -- -- 31
2020-03-08 14:00:00 17.9 12 Oeste 24 Noroeste 0 -- -- 35
2020-03-08 13:00:00 16.5 9 Noroeste 15 Noroeste 0 -- -- 39
2020-03-08 12:00:00 15.4 5 Noroeste 11 Oeste 0 -- -- 45
2020-03-08 11:00:00 13.8 3 Oeste 8 Noroeste 0 -- -- 56
2020-03-08 10:00:00 10.4 2 Noroeste 7 Oeste 0 -- -- 63
2020-03-08 09:00:00 6.3 6 Oeste 9 Oeste 0 -- -- 73
2020-03-08 08:00:00 3.6 4 Oeste 9 Oeste 0 -- -- 76
2020-03-08 07:00:00 5.4 4 Oeste 7 Oeste 0 -- -- 69
2020-03-08 06:00:00 3.7 6 Oeste 9 Oeste 0 -- -- 74
2020-03-08 05:00:00 5.2 4 Noroeste 6 Noroeste 0 -- -- 68
2020-03-08 04:00:00 6.9 3 Noroeste 4 Noroeste 0 -- -- 62
2020-03-08 03:00:00 6.5 3 Oeste 6 Oeste 0 -- -- 64
2020-03-08 02:00:00 6.4 3 Oeste 8 Oeste 0 -- -- 65
2020-03-08 01:00:00 6.8 2 Oeste 9 Sudeste 0 -- -- 65
2020-03-08 00:00:00 8.7 6 Sudeste 10 Sur 0 -- -- 59
2020-03-07 23:00:00 8.8 4 Norte 8 Norte 0 -- -- 57
2020-03-07 22:00:00 8.8 4 Norte 17 Norte 0 -- -- 58
2020-03-07 21:00:00 9.9 4 Norte 17 Nordeste 0 -- -- 54
2020-03-07 20:00:00 10.7 6 Norte 14 Norte 0 -- -- 54
2020-03-07 19:00:00 14.3 8 Norte 18 Noroeste 0 -- -- 47
2020-03-07 18:00:00 16.3 9 Nordeste 19 Nordeste 0 -- -- 35
2020-03-07 17:00:00 16.6 12 Nordeste 23 Norte 0 -- -- 35
2020-03-07 16:00:00 16.7 10 Nordeste 23 Nordeste 0 -- -- 36
2020-03-07 15:00:00 16.4 12 Nordeste 27 Nordeste 0 -- -- 38
2020-03-07 14:00:00 15.6 11 Nordeste 27 Este 0 -- -- 42
2020-03-07 13:00:00 14.8 16 Este 28 Este 0 -- -- 40
2020-03-07 12:00:00 13.3 12 Este 28 Este 0 -- -- 43
2020-03-07 11:00:00 11.7 10 Este 18 Este 0 -- -- 49
2020-03-07 10:00:00 7.9 5 Nordeste 10 Este 0 -- -- 69
2020-03-07 09:00:00 3.8 3 Oeste 8 Oeste 0 -- -- 84
2020-03-07 08:00:00 2.3 6 Noroeste 12 Noroeste 0 -- -- 85
2020-03-07 07:00:00 2 6 Noroeste 13 Oeste 0 -- -- 91
2020-03-07 06:00:00 1.8 6 Oeste 14 Noroeste 0 -- -- 92
2020-03-07 05:00:00 2.3 9 Noroeste 17 Noroeste 0 -- -- 90
2020-03-07 04:00:00 2.5 9 Noroeste 16 Noroeste 0 -- -- 92
2020-03-07 03:00:00 2.8 12 Noroeste 18 Noroeste 0 -- -- 90
2020-03-07 02:00:00 3.5 14 Noroeste 20 Noroeste 0 -- -- 88
2020-03-07 01:00:00 5.1 11 Noroeste 20 Noroeste 0 -- -- 81
2020-03-07 00:00:00 5.1 14 Noroeste 20 Noroeste 0 -- -- 78
2020-03-06 23:00:00 6.9 3 Nordeste 28 Noroeste 0 -- -- 68
2020-03-06 22:00:00 8.3 17 Noroeste 30 Noroeste 0 -- -- 65
2020-03-06 21:00:00 8.7 7 Norte 31 Noroeste 0 -- -- 66
2020-03-06 20:00:00 9 24 Noroeste 32 Noroeste 0 -- -- 64
2020-03-06 19:00:00 12 22 Noroeste 39 Noroeste 0 -- -- 51
2020-03-06 18:00:00 13.3 27 Noroeste 41 Noroeste 0 -- -- 49
2020-03-06 17:00:00 13.5 30 Noroeste 51 Noroeste 0 -- -- 48
2020-03-06 16:00:00 13.5 32 Noroeste 52 Noroeste 0 -- -- 49
2020-03-06 15:00:00 13.2 31 Noroeste 46 Noroeste 0 -- -- 49
2020-03-06 14:00:00 12.5 26 Noroeste 46 Noroeste 0 -- -- 56
2020-03-06 13:00:00 11.4 25 Noroeste 43 Noroeste 0 -- -- 61
2020-03-06 12:00:00 10.6 31 Noroeste 44 Noroeste 0 -- -- 67
2020-03-06 11:00:00 9.8 31 Noroeste 47 Noroeste 0 -- -- 75
2020-03-06 10:00:00 8.1 28 Noroeste 45 Noroeste 0 -- -- 86
2020-03-06 09:00:00 7.6 23 Noroeste 42 Noroeste 0 -- -- 93
2020-03-06 08:00:00 6.8 21 Oeste 36 Oeste 0 -- -- 95
2020-03-06 07:00:00 5.8 17 Oeste 32 Oeste 0 -- -- 96
2020-03-06 06:00:00 5.1 17 Oeste 26 Oeste 0 -- -- 96
2020-03-06 05:00:00 4.8 14 Oeste 22 Oeste 0 -- -- 96
2020-03-06 04:00:00 5.2 17 Noroeste 28 Oeste 0 -- -- 95
2020-03-06 03:00:00 6 13 Noroeste 28 Noroeste 0 -- -- 93
2020-03-06 02:00:00 6.7 20 Noroeste 31 Noroeste 0 -- -- 92
2020-03-06 01:00:00 6.1 22 Noroeste 32 Oeste 0 -- -- 91
2020-03-06 00:00:00 6.6 22 Noroeste 32 Noroeste 0 -- -- 87
2020-03-05 23:00:00 7.1 21 Noroeste 32 Noroeste 0 -- -- 84
2020-03-05 22:00:00 7.9 21 Noroeste 35 Noroeste 0 -- -- 80
2020-03-05 21:00:00 9.5 23 Oeste 37 Oeste 0 -- -- 71
2020-03-05 20:00:00 10.1 17 Oeste 41 Noroeste 0 -- -- 72
2020-03-05 19:00:00 12.4 28 Noroeste 45 Noroeste 0 -- -- 62
2020-03-05 18:00:00 14 23 Oeste 52 Noroeste 0 -- -- 59
2020-03-05 17:00:00 14.2 30 Noroeste 54 Oeste 0 -- -- 59
2020-03-05 16:00:00 14.2 33 Noroeste 50 Noroeste 0 -- -- 57
2020-03-05 15:00:00 14.3 30 Oeste 49 Oeste 0 -- -- 59
2020-03-05 14:00:00 13 28 Noroeste 50 Noroeste 0 -- -- 68
2020-03-05 13:00:00 13 32 Noroeste 53 Oeste 0 -- -- 69
2020-03-05 12:00:00 12.5 32 Oeste 48 Oeste 0 -- -- 84
2020-03-05 11:00:00 11.6 24 Oeste 35 Oeste 0 -- -- 86
2020-03-05 10:00:00 11.3 18 Sudoeste 29 Oeste 0 -- -- 87
2020-03-05 09:00:00 10.8 12 Sudoeste 30 Oeste 0 -- -- 90
2020-03-05 08:00:00 8.9 12 Oeste 24 Oeste 0 -- -- 97
2020-03-05 07:00:00 9.3 18 Oeste 24 Oeste 0 -- -- 96
2020-03-05 06:00:00 9.3 10 Oeste 22 Oeste 0 -- -- 94
2020-03-05 05:00:00 10.1 17 Oeste 25 Oeste 0 -- -- 97
2020-03-05 04:00:00 10.2 10 Oeste 23 Oeste 0 -- -- 96
2020-03-05 03:00:00 10.2 15 Oeste 22 Oeste 0 -- -- 92
2020-03-05 02:00:00 10.4 11 Sudoeste 17 Sudoeste 0 -- -- 87
2020-03-05 01:00:00 9.1 8 Oeste 16 Sudoeste 0 -- -- 88
2020-03-05 00:00:00 8.6 8 Oeste 12 Oeste 0 -- -- 86
2020-03-04 23:00:00 9.8 11 Oeste 14 Oeste 0 -- -- 81
2020-03-04 22:00:00 10.2 9 Sudoeste 12 Sudoeste 0 -- -- 79
2020-03-04 21:00:00 10.8 7 Oeste 8 Oeste 0 -- -- 75
2020-03-04 20:00:00 11.3 0 Calma 11 Noroeste 0 -- -- 74
2020-03-04 19:00:00 13.6 7 Noroeste 23 Noroeste 0 -- -- 68
2020-03-04 18:00:00 14.8 17 Noroeste 32 Noroeste 0 -- -- 65
2020-03-04 17:00:00 15.4 19 Noroeste 33 Noroeste 0 -- -- 61
2020-03-04 16:00:00 15.7 16 Noroeste 34 Noroeste 0 -- -- 62
2020-03-04 15:00:00 15.4 18 Noroeste 31 Noroeste 0 -- -- 65
2020-03-04 14:00:00 16 18 Noroeste 31 Noroeste 0 -- -- 63
2020-03-04 13:00:00 14.2 17 Noroeste 26 Noroeste 0 -- -- 70
2020-03-04 12:00:00 13.4 15 Noroeste 26 Noroeste 0 -- -- 76
2020-03-04 11:00:00 13.2 16 Noroeste 24 Noroeste 0 -- -- 82
2020-03-04 10:00:00 10.9 8 Oeste 18 Noroeste 0 -- -- 93
2020-03-04 09:00:00 9.3 7 Noroeste 12 Noroeste 0 -- -- 96
2020-03-04 08:00:00 8.3 10 Oeste 13 Oeste 0 -- -- 95
2020-03-04 07:00:00 9.7 7 Oeste 15 Oeste 0 -- -- 95
2020-03-04 06:00:00 10.9 12 Oeste 26 Oeste 0 -- -- 91
2020-03-04 05:00:00 11.5 11 Oeste 25 Oeste 0 -- -- 91
2020-03-04 04:00:00 11.7 14 Oeste 25 Oeste 0 -- -- 93
2020-03-04 03:00:00 11.7 14 Oeste 21 Oeste 0 -- -- 95
2020-03-04 02:00:00 11.6 10 Oeste 18 Oeste 0 -- -- 95
2020-03-04 01:00:00 12.3 14 Noroeste 23 Oeste 0 -- -- 93
2020-03-04 00:00:00 12.6 12 Oeste 20 Oeste 0 -- -- 94
2020-03-03 23:00:00 12.9 12 Oeste 21 Oeste 0 -- -- 91
2020-03-03 22:00:00 13.2 14 Oeste 21 Oeste 0 -- -- 88
2020-03-03 21:00:00 13.2 6 Oeste 16 Oeste 0 -- -- 87
2020-03-03 20:00:00 13.4 10 Oeste 30 Oeste 0 -- -- 86
2020-03-03 19:00:00 14 21 Oeste 40 Oeste 0 -- -- 81
2020-03-03 18:00:00 14.7 26 Oeste 40 Oeste 0 -- -- 80
2020-03-03 17:00:00 14.5 27 Oeste 42 Oeste 0 -- -- 80
2020-03-03 16:00:00 14.2 27 Oeste 48 Oeste 0 -- -- 79
2020-03-03 15:00:00 14.5 31 Oeste 50 Oeste 0 -- -- 73
2020-03-03 14:00:00 14.1 28 Oeste 45 Oeste 0 -- -- 76
2020-03-03 13:00:00 13.5 31 Oeste 54 Oeste 0 -- -- 75
2020-03-03 12:00:00 11.4 34 Oeste 49 Oeste 0 -- -- 77
2020-03-03 11:00:00 11.2 24 Oeste 40 Oeste 0 -- -- 78
2020-03-03 10:00:00 8.2 19 Oeste 27 Oeste 0 -- -- 91
2020-03-03 09:00:00 6.4 14 Oeste 24 Oeste 0 -- -- 96
2020-03-03 08:00:00 4.4 9 Sudoeste 13 Oeste 0 -- -- 95
2020-03-03 07:00:00 4 10 Oeste 13 Oeste 0 -- -- 94
2020-03-03 06:00:00 4.1 10 Oeste 16 Oeste 0 -- -- 93
2020-03-03 05:00:00 4 9 Oeste 13 Oeste 0 -- -- 93
2020-03-03 04:00:00 4.4 11 Oeste 21 Oeste 0 -- -- 91
2020-03-03 03:00:00 4.9 14 Oeste 21 Oeste 0 -- -- 92
2020-03-03 02:00:00 5.1 11 Oeste 19 Oeste 0 -- -- 90
2020-03-03 01:00:00 5.4 13 Oeste 16 Oeste 0 -- -- 90
2020-03-03 00:00:00 5.2 11 Oeste 21 Oeste 0 -- -- 88
2020-03-02 23:00:00 6.4 14 Oeste 20 Oeste 0 -- -- 84
2020-03-02 22:00:00 6.5 12 Oeste 19 Oeste 0 -- -- 82
2020-03-02 21:00:00 7.4 10 Noroeste 25 Oeste 0 -- -- 79
2020-03-02 20:00:00 9.1 17 Noroeste 32 Noroeste 0 -- -- 72
2020-03-02 19:00:00 10.6 19 Noroeste 53 Noroeste 0 -- -- 68
2020-03-02 18:00:00 12.6 30 Noroeste 55 Noroeste 0 -- -- 61
2020-03-02 17:00:00 13.1 34 Noroeste 59 Noroeste 0 -- -- 59
2020-03-02 16:00:00 13.4 35 Oeste 58 Oeste 0 -- -- 60
2020-03-02 15:00:00 13.6 31 Oeste 59 Oeste 0 -- -- 58
2020-03-02 14:00:00 13.5 33 Noroeste 50 Noroeste 0 -- -- 66
2020-03-02 13:00:00 14 39 Oeste 58 Oeste 0 -- -- 59
2020-03-02 12:00:00 13.2 30 Oeste 63 Noroeste 0 -- -- 70
2020-03-02 11:00:00 13 35 Oeste 60 Noroeste 0 -- -- 64
2020-03-02 10:00:00 13.2 33 Oeste 53 Oeste 0 -- -- 83
2020-03-02 09:00:00 12.3 30 Oeste 54 Oeste 0.2 -- -- 94
2020-03-02 08:00:00 12.2 35 Oeste 60 Oeste 0 -- -- 91
2020-03-02 07:00:00 11.7 36 Oeste 57 Oeste 0.2 -- -- 92
2020-03-02 06:00:00 11.3 28 Sudoeste 49 Sudoeste 0.2 -- -- 90
2020-03-02 05:00:00 11.2 28 Oeste 49 Oeste 3.2 -- -- 94
2020-03-02 04:00:00 12.2 32 Oeste 51 Oeste 0 -- -- 84
2020-03-02 03:00:00 12.5 30 Sudoeste 51 Oeste 0 -- -- 79
2020-03-02 02:00:00 12.4 22 Sudoeste 38 Sudoeste 0 -- -- 79
2020-03-02 01:00:00 12.4 18 Sudoeste 38 Sudoeste 0 -- -- 80
2020-03-02 00:00:00 12.4 20 Sudoeste 46 Oeste 0 -- -- 84
2020-03-01 23:00:00 12.1 21 Sudoeste 33 Sudoeste 0 -- -- 89
2020-03-01 22:00:00 12.3 16 Sudoeste 37 Sudoeste 0 -- -- 92
2020-03-01 21:00:00 12.8 19 Sudoeste 38 Sur 0 -- -- 86
2020-03-01 20:00:00 12.7 12 Sur 24 Sudoeste 0 -- -- 84
2020-03-01 19:00:00 13 17 Sudoeste 29 Sudoeste 0 -- -- 80
2020-03-01 18:00:00 13.5 19 Sudoeste 32 Sudoeste 0 -- -- 79
2020-03-01 17:00:00 13.8 18 Sudoeste 36 Oeste 0 -- -- 77
2020-03-01 16:00:00 15 22 Sudoeste 33 Oeste 0 -- -- 70
2020-03-01 15:00:00 14.8 19 Sudoeste 33 Sudoeste 0 -- -- 70
2020-03-01 14:00:00 14.3 17 Oeste 26 Oeste 0 -- -- 72
2020-03-01 13:00:00 12.1 17 Sudoeste 28 Sudoeste 0 -- -- 78
2020-03-01 12:00:00 11.3 19 Sudoeste 33 Oeste 0 -- -- 81
2020-03-01 11:00:00 10.8 20 Oeste 29 Oeste 0 -- -- 85
2020-03-01 10:00:00 9.8 10 Sudoeste 21 Sudoeste 0 -- -- 88
2020-03-01 09:00:00 9.1 12 Oeste 19 Sudoeste 0 -- -- 91
2020-03-01 08:00:00 7.7 15 Sudoeste 21 Sudoeste 0 -- -- 94
2020-03-01 07:00:00 8.2 14 Sudoeste 27 Oeste 0 -- -- 91
2020-03-01 06:00:00 9 19 Oeste 27 Oeste 0 -- -- 94
2020-03-01 05:00:00 8.5 11 Oeste 23 Oeste 0 -- -- 93
2020-03-01 04:00:00 9.2 18 Oeste 26 Oeste 0 -- -- 93
2020-03-01 03:00:00 9.2 15 Oeste 24 Oeste 0 -- -- 93
2020-03-01 02:00:00 9.2 13 Oeste 22 Oeste 0 -- -- 94
2020-03-01 01:00:00 9.7 5 Oeste 17 Sudoeste 0 -- -- 93
2020-03-01 00:00:00 9.5 11 Sudoeste 28 Oeste 0 -- -- 93
2020-02-29 23:00:00 10.5 24 Oeste 33 Oeste 0 -- -- 88
2020-02-29 22:00:00 11.1 11 Sudoeste 17 Sudoeste 0 -- -- 96
2020-02-29 21:00:00 11.2 11 Sur 17 Sur 0 -- -- 96
2020-02-29 20:00:00 11.3 8 Sur 17 Sudoeste 0.4 -- -- 95
2020-02-29 19:00:00 11.4 8 Sudoeste 21 Sudoeste 0.6 -- -- 94
2020-02-29 18:00:00 11.5 12 Sudoeste 27 Sudoeste 0.2 -- -- 93
2020-02-29 17:00:00 11.7 14 Sudoeste 27 Sudoeste 0 -- -- 90
2020-02-29 16:00:00 12.5 18 Sudoeste 34 Sudoeste 0 -- -- 86
2020-02-29 15:00:00 14.4 24 Sudoeste 33 Sudoeste 0 -- -- 74
2020-02-29 14:00:00 13.9 15 Sudoeste 24 Sudoeste 0 -- -- 70
2020-02-29 13:00:00 13.8 14 Sur 31 Oeste 0 -- -- 66
2020-02-29 12:00:00 13.7 16 Sudoeste 30 Sudoeste 0 -- -- 68
2020-02-29 11:00:00 11 10 Sudoeste 20 Sudoeste 0 -- -- 79
2020-02-29 10:00:00 9 8 Sudoeste 20 Sudoeste 0 -- -- 87
2020-02-29 09:00:00 6.6 8 Oeste 17 Oeste 0 -- -- 96
2020-02-29 08:00:00 5.5 6 Sudoeste 25 Oeste 0 -- -- 94
2020-02-29 07:00:00 4.4 12 Noroeste 22 Noroeste 0 -- -- 91
2020-02-29 06:00:00 5.7 2 Oeste 9 Sudoeste 0 -- -- 82
2020-02-29 05:00:00 5.6 4 Noroeste 16 Sudoeste 0 -- -- 81
2020-02-29 04:00:00 8.5 7 Sudoeste 16 Sudoeste 0 -- -- 76
2020-02-29 03:00:00 9.3 13 Sudoeste 18 Sudoeste 0 -- -- 74
2020-02-29 02:00:00 10.1 14 Sudoeste 22 Sudoeste 0 -- -- 72
2020-02-29 01:00:00 9.7 13 Sudoeste 19 Sudoeste 0 -- -- 71
2020-02-29 00:00:00 10.7 13 Sudoeste 20 Sudoeste 0 -- -- 66
2020-02-28 23:00:00 11.3 13 Sur 17 Sur 0 -- -- 58
2020-02-28 22:00:00 12.8 7 Sudeste 16 Sur 0 -- -- 62
2020-02-28 21:00:00 13.2 8 Sur 13 Sur 0 -- -- 57
2020-02-28 20:00:00 13.8 12 Sur 18 Sur 0 -- -- 52
2020-02-28 19:00:00 15.1 9 Sur 19 Sur 0 -- -- 47
2020-02-28 18:00:00 18 12 Sur 25 Sur 0 -- -- 37
2020-02-28 17:00:00 19.4 16 Sur 26 Sudoeste 0 -- -- 36
2020-02-28 16:00:00 20.3 10 Sudeste 18 Sudeste 0 -- -- 33
2020-02-28 15:00:00 19.7 10 Sudeste 21 Sudeste 0 -- -- 38
2020-02-28 14:00:00 18.8 14 Sudeste 24 Sudeste 0 -- -- 38
2020-02-28 13:00:00 18.1 12 Sudeste 20 Sudeste 0 -- -- 42
2020-02-28 12:00:00 16.2 9 Este 15 Este 0 -- -- 42
2020-02-28 11:00:00 14.2 4 Este 7 Este 0 -- -- 55
2020-02-28 10:00:00 10.9 0 Calma 5 Este 0 -- -- 72
2020-02-28 09:00:00 7.7 3 Nordeste 7 Este 0 -- -- 72
2020-02-28 08:00:00 7.4 5 Este 9 Nordeste 0 -- -- 70
2020-02-28 07:00:00 6.6 3 Noroeste 7 Oeste 0 -- -- 73
2020-02-28 06:00:00 6.8 4 Oeste 6 Noroeste 0 -- -- 73
2020-02-28 05:00:00 7.4 4 Oeste 6 Oeste 0 -- -- 70
2020-02-28 04:00:00 8.3 5 Oeste 9 Oeste 0 -- -- 66
2020-02-28 03:00:00 8.2 6 Oeste 12 Sudoeste 0 -- -- 67
2020-02-28 02:00:00 8.3 7 Oeste 10 Oeste 0 -- -- 67
2020-02-28 01:00:00 8 6 Oeste 12 Sudoeste 0 -- -- 68
2020-02-28 00:00:00 8.5 5 Noroeste 9 Noroeste 0 -- -- 66